Time;durP1;ratioP1;P1;durP2;ratioP2;P2;SDS_P1;SDS_P2;PMS_P1;PMS_P2;Temp;Humidity;BMP_temperature;BMP_pressure;BME280_temperature;BME280_humidity;BME280_pressure;Samples;Min_cycle;Max_cycle;Signal;HPM_P1;HPM_P2
2022/10/26 00:00:44;;;;;;;15.48;8.15;;;;;;;9.59;100.00;101372.38;4972859;28;20121;-76
2022/10/26 00:03:10;;;;;;;13.02;8.45;;;;;;;9.58;100.00;101366.31;4975900;28;20050;-76
2022/10/26 00:05:35;;;;;;;17.05;8.55;;;;;;;9.54;100.00;101356.78;4975934;28;20069;-76
2022/10/26 00:08:01;;;;;;;14.48;8.32;;;;;;;9.63;100.00;101354.97;4974306;28;20022;-76
2022/10/26 00:10:27;;;;;;;12.75;8.57;;;;;;;9.64;100.00;101357.56;4974019;28;20046;-76
2022/10/26 00:12:52;;;;;;;12.15;7.82;;;;;;;9.68;100.00;101351.47;4974597;28;20039;-76
2022/10/26 00:15:18;;;;;;;18.90;8.32;;;;;;;9.72;100.00;101349.69;4972830;28;20756;-76
2022/10/26 00:17:44;;;;;;;14.10;8.40;;;;;;;9.74;100.00;101347.91;4975808;28;20113;-76
2022/10/26 00:20:10;;;;;;;16.52;8.43;;;;;;;9.77;100.00;101347.88;4974321;28;20113;-76
2022/10/26 00:22:36;;;;;;;12.75;8.02;;;;;;;9.80;100.00;101348.69;4974181;28;20058;-76
2022/10/26 00:25:01;;;;;;;13.75;8.25;;;;;;;9.78;100.00;101344.41;4973193;28;20050;-76
2022/10/26 00:27:26;;;;;;;14.35;8.50;;;;;;;9.87;100.00;101338.19;4972619;28;20114;-76
2022/10/26 00:29:52;;;;;;;13.75;8.43;;;;;;;9.90;100.00;101325.13;4974187;28;20509;-76
2022/10/26 00:32:17;;;;;;;15.48;8.85;;;;;;;9.92;100.00;101324.25;4974503;28;20034;-77
2022/10/26 00:34:42;;;;;;;15.18;8.25;;;;;;;9.93;100.00;101312.06;4973210;28;20049;-77
2022/10/26 00:37:08;;;;;;;12.60;8.10;;;;;;;9.87;100.00;101309.56;4972837;28;20030;-76
2022/10/26 00:39:33;;;;;;;13.68;8.52;;;;;;;9.92;100.00;101326.00;4973167;28;20027;-76
2022/10/26 00:41:59;;;;;;;11.18;8.00;;;;;;;9.97;100.00;101335.47;4972826;28;20195;-76
2022/10/26 00:44:45;;;;;;;9.85;7.35;;;;;;;10.03;100.00;101339.72;4973543;28;20086;-76
2022/10/26 00:47:16;;;;;;;12.18;8.48;;;;;;;10.03;100.00;101337.97;4973269;28;20463;-76
2022/10/26 00:49:45;;;;;;;15.20;7.70;;;;;;;10.01;100.00;101331.94;4972650;28;20092;-76
2022/10/26 00:52:12;;;;;;;10.65;7.60;;;;;;;10.02;100.00;101332.81;4973295;28;20030;-76
2022/10/26 00:54:37;;;;;;;13.63;8.48;;;;;;;10.06;100.00;101335.31;4974041;28;20015;-76
2022/10/26 00:57:03;;;;;;;14.20;8.10;;;;;;;10.07;100.00;101333.59;4973708;28;20049;-76
2022/10/26 00:59:28;;;;;;;14.82;8.07;;;;;;;10.08;100.00;101330.13;4972778;28;20388;-76
2022/10/26 01:01:53;;;;;;;13.30;7.82;;;;;;;10.08;100.00;101320.56;4973356;28;20039;-76
2022/10/26 01:04:18;;;;;;;11.80;7.80;;;;;;;10.10;100.00;101315.31;4972178;28;20058;-76
2022/10/26 01:06:45;;;;;;;13.88;7.47;;;;;;;10.10;100.00;101312.69;4973665;28;20026;-76
2022/10/26 01:09:11;;;;;;;10.48;7.68;;;;;;;10.12;100.00;101317.91;4973458;28;20030;-77
2022/10/26 01:11:37;;;;;;;15.48;8.07;;;;;;;10.09;100.00;101311.00;4973039;28;20026;-76
2022/10/26 01:14:06;;;;;;;12.38;8.15;;;;;;;10.13;100.00;101317.00;4973974;28;20031;-77
2022/10/26 01:16:47;;;;;;;11.10;7.50;;;;;;;10.14;100.00;101323.97;4973657;28;20027;-76
2022/10/26 01:19:25;;;;;;;11.77;7.43;;;;;;;10.14;100.00;101317.00;4972686;28;20437;-76
2022/10/26 01:22:02;;;;;;;12.80;7.68;;;;;;;10.14;100.00;101305.72;4972174;28;20037;-76
2022/10/26 01:24:44;;;;;;;15.57;7.50;;;;;;;10.11;100.00;101293.59;4972493;28;20074;-77
2022/10/26 01:27:22;;;;;;;15.90;8.27;;;;;;;10.13;100.00;101297.03;4974306;28;20066;-76
2022/10/26 01:30:09;;;;;;;12.13;7.00;;;;;;;10.13;100.00;101298.78;4974474;28;20122;-76
2022/10/26 01:32:45;;;;;;;11.73;7.15;;;;;;;10.13;100.00;101296.16;4973835;28;20023;-76
2022/10/26 01:35:26;;;;;;;13.23;8.30;;;;;;;10.11;100.00;101295.34;4974086;28;20037;-77
2022/10/26 01:38:01;;;;;;;13.40;7.97;;;;;;;10.12;100.00;101291.84;4973536;28;20026;-76
2022/10/26 01:40:35;;;;;;;10.60;7.38;;;;;;;10.08;100.00;101286.69;4973716;28;20375;-76
2022/10/26 01:43:06;;;;;;;13.85;8.40;;;;;;;10.02;100.00;101281.56;4974306;28;20035;-76
2022/10/26 01:45:33;;;;;;;14.45;8.60;;;;;;;10.01;100.00;101286.81;4973243;28;20039;-77
2022/10/26 01:48:00;;;;;;;14.40;8.60;;;;;;;9.95;100.00;101284.28;4974177;28;20062;-76
2022/10/26 01:50:26;;;;;;;12.32;8.18;;;;;;;9.94;100.00;101283.44;4973998;28;20023;-76
2022/10/26 01:52:53;;;;;;;19.73;8.85;;;;;;;9.92;100.00;101277.38;4973802;28;20029;-76
2022/10/26 01:55:50;;;;;;;13.88;8.65;;;;;;;9.93;100.00;101286.88;4973549;28;20117;-76
2022/10/26 01:58:34;;;;;;;11.93;8.80;;;;;;;9.90;100.00;101281.72;4972960;28;20027;-76
2022/10/26 02:01:43;;;;;;;17.00;9.13;;;;;;;9.86;100.00;101280.03;4971668;28;20086;-76
2022/10/26 02:04:36;;;;;;;19.13;9.63;;;;;;;9.89;100.00;101272.19;4972479;28;20050;-76
2022/10/26 02:07:35;;;;;;;16.73;9.27;;;;;;;9.90;100.00;101271.31;4970440;28;20038;-76
2022/10/26 02:10:19;;;;;;;13.63;9.25;;;;;;;9.94;100.00;101266.91;4965438;28;20133;-76
2022/10/26 02:12:52;;;;;;;16.40;9.70;;;;;;;9.95;100.00;101272.13;4972688;28;20027;-76
2022/10/26 02:15:32;;;;;;;20.58;10.73;;;;;;;9.98;100.00;101261.66;4972229;28;20053;-76
2022/10/26 02:18:03;;;;;;;15.25;9.20;;;;;;;10.01;100.00;101255.53;4972715;28;20027;-76
2022/10/26 02:20:50;;;;;;;17.08;8.80;;;;;;;10.04;100.00;101258.09;4971264;28;20033;-76
2022/10/26 02:23:16;;;;;;;17.90;9.40;;;;;;;10.03;100.00;101252.00;4968100;28;20382;-76
2022/10/26 02:25:49;;;;;;;18.15;9.43;;;;;;;10.07;100.00;101264.13;4972126;28;20030;-76
2022/10/26 02:28:24;;;;;;;15.23;8.43;;;;;;;10.08;100.00;101260.63;4970816;28;20038;-76
2022/10/26 02:30:55;;;;;;;13.50;8.18;;;;;;;10.11;100.00;101254.53;4961268;28;20371;-77
2022/10/26 02:33:22;;;;;;;20.00;7.63;;;;;;;10.08;100.00;101250.22;4972695;28;20427;-76
2022/10/26 02:35:53;;;;;;;15.57;8.27;;;;;;;10.09;100.00;101251.91;4970731;28;20038;-76
2022/10/26 02:38:20;;;;;;;11.90;7.80;;;;;;;10.08;100.00;101250.22;4965253;28;20038;-76
2022/10/26 02:40:47;;;;;;;11.55;7.82;;;;;;;10.08;100.00;101244.16;4972666;28;20030;-76
2022/10/26 02:43:20;;;;;;;13.80;7.65;;;;;;;10.10;100.00;101247.56;4970623;28;20074;-76
2022/10/26 02:45:56;;;;;;;13.63;7.68;;;;;;;10.06;100.00;101240.69;4971481;28;20085;-76
2022/10/26 02:48:22;;;;;;;11.50;6.90;;;;;;;10.08;100.00;101244.16;4972669;28;20026;-74
2022/10/26 02:51:00;;;;;;;12.10;7.22;;;;;;;10.06;100.00;101245.91;4971920;28;20062;-73
2022/10/26 02:53:33;;;;;;;11.15;6.53;;;;;;;9.98;100.00;101225.19;4962957;28;20054;-73
2022/10/26 02:56:05;;;;;;;15.27;7.20;;;;;;;10.04;100.00;101240.72;4972128;28;20130;-74
2022/10/26 02:58:36;;;;;;;13.23;6.43;;;;;;;10.04;100.00;101242.47;4971948;28;20022;-73
2022/10/26 03:01:02;;;;;;;12.30;6.28;;;;;;;10.02;100.00;101232.06;4975225;28;20039;-74
2022/10/26 03:03:28;;;;;;;11.40;6.18;;;;;;;9.99;100.00;101229.50;4975504;28;20113;-74
2022/10/26 03:05:53;;;;;;;10.57;5.72;;;;;;;10.07;100.00;101237.19;4975457;28;20041;-74
2022/10/26 03:08:18;;;;;;;11.73;5.93;;;;;;;10.06;100.00;101238.94;4975265;28;20059;-74
2022/10/26 03:10:44;;;;;;;13.18;6.53;;;;;;;10.11;100.00;101238.91;4974800;28;20430;-73
2022/10/26 03:13:11;;;;;;;10.05;5.78;;;;;;;10.14;100.00;101227.56;4976144;28;20030;-74
2022/10/26 03:15:37;;;;;;;12.35;5.22;;;;;;;10.18;100.00;101231.84;4976427;28;20023;-74
2022/10/26 03:18:03;;;;;;;10.23;4.75;;;;;;;10.20;100.00;101232.66;4976062;28;20382;-76
2022/10/26 03:20:28;;;;;;;11.15;5.10;;;;;;;10.23;100.00;101233.47;4974563;28;20030;-76
2022/10/26 03:22:55;;;;;;;8.77;4.97;;;;;;;10.25;100.00;101231.72;4975901;28;20470;-76
2022/10/26 03:25:21;;;;;;;9.80;5.03;;;;;;;10.30;100.00;101234.28;4973923;28;20108;-76
2022/10/26 03:27:46;;;;;;;8.98;4.80;;;;;;;10.31;100.00;101239.47;4975185;28;20031;-76
2022/10/26 03:30:12;;;;;;;12.13;4.68;;;;;;;10.29;100.00;101216.91;4974824;28;20054;-76
2022/10/26 03:32:37;;;;;;;9.13;4.78;;;;;;;10.35;100.00;101222.03;4972574;28;20105;-76
2022/10/26 03:35:03;;;;;;;14.40;5.10;;;;;;;10.33;100.00;101223.78;4975830;28;20038;-76
2022/10/26 03:37:28;;;;;;;17.77;5.00;;;;;;;10.33;100.00;101221.19;4973680;28;20043;-76
2022/10/26 03:39:53;;;;;;;12.02;4.63;;;;;;;10.31;100.00;101225.59;4975132;28;20030;-76
2022/10/26 03:42:19;;;;;;;12.27;4.63;;;;;;;10.28;100.00;101229.09;4973988;28;20562;-77
2022/10/26 03:44:46;;;;;;;9.57;4.90;;;;;;;10.18;100.00;101209.25;4974868;28;20042;-76
2022/10/26 03:47:11;;;;;;;11.57;4.82;;;;;;;10.20;100.00;101222.22;4973430;28;20031;-76
2022/10/26 03:49:36;;;;;;;12.88;4.65;;;;;;;10.20;100.00;101219.63;4975648;28;20049;-76
2022/10/26 03:52:02;;;;;;;10.63;4.70;;;;;;;10.17;100.00;101219.69;4975023;28;20109;-76
2022/10/26 03:54:27;;;;;;;10.73;4.55;;;;;;;10.16;100.00;101212.75;4974032;28;20039;-76
2022/10/26 03:56:52;;;;;;;6.32;4.18;;;;;;;10.13;100.00;101220.63;4974250;28;20031;-76
2022/10/26 03:59:18;;;;;;;9.25;4.20;;;;;;;10.06;100.00;101206.81;4975044;28;20560;-77
2022/10/26 04:01:43;;;;;;;11.73;5.20;;;;;;;10.00;100.00;101204.31;4972197;28;20034;-76
2022/10/26 04:04:09;;;;;;;10.40;4.68;;;;;;;10.09;100.00;101218.06;4975826;28;20547;-77
2022/10/26 04:06:35;;;;;;;10.68;4.90;;;;;;;10.07;100.00;101221.56;4972901;28;20027;-76
2022/10/26 04:09:01;;;;;;;9.40;4.60;;;;;;;10.07;100.00;101222.44;4974335;28;20410;-76
2022/10/26 04:11:27;;;;;;;11.20;4.68;;;;;;;10.08;100.00;101220.69;4973579;28;20082;-76
2022/10/26 04:13:54;;;;;;;13.00;4.50;;;;;;;10.10;100.00;101221.53;4974439;28;20050;-76
2022/10/26 04:16:20;;;;;;;10.27;4.53;;;;;;;10.14;100.00;101222.34;4974694;28;20039;-77
2022/10/26 04:18:45;;;;;;;9.13;4.55;;;;;;;10.15;100.00;101211.03;4973744;28;20548;-76
2022/10/26 04:21:10;;;;;;;10.40;4.70;;;;;;;10.21;100.00;101216.16;4972678;28;20058;-76
2022/10/26 04:23:36;;;;;;;9.38;4.30;;;;;;;10.26;100.00;101216.97;4973873;28;20122;-76
2022/10/26 04:26:04;;;;;;;9.43;4.32;;;;;;;10.29;100.00;101217.78;4973853;28;20022;-76
2022/10/26 04:28:29;;;;;;;8.55;4.85;;;;;;;10.34;100.00;101214.25;4973568;28;20088;-76
2022/10/26 04:30:54;;;;;;;9.70;5.00;;;;;;;10.37;100.00;101215.06;4974615;28;20066;-76
2022/10/26 04:33:19;;;;;;;7.72;3.97;;;;;;;10.42;100.00;101214.97;4973649;28;20475;-76
2022/10/26 04:35:45;;;;;;;14.93;5.43;;;;;;;10.45;100.00;101220.13;4973024;28;20122;-76
2022/10/26 04:38:10;;;;;;;10.90;5.07;;;;;;;10.48;100.00;101214.88;4975102;28;20081;-76
2022/10/26 04:40:35;;;;;;;7.93;4.10;;;;;;;10.51;100.00;101207.84;4971697;28;20034;-76
2022/10/26 04:43:01;;;;;;;12.65;5.22;;;;;;;10.54;100.00;101204.34;4973588;28;20600;-76
2022/10/26 04:45:29;;;;;;;10.60;4.50;;;;;;;10.51;100.00;101197.44;4973596;28;20077;-76
2022/10/26 04:48:04;;;;;;;11.43;4.57;;;;;;;10.59;100.00;101212.06;4973582;28;20057;-76
2022/10/26 04:50:29;;;;;;;8.60;4.97;;;;;;;10.61;100.00;101208.56;4973538;28;20053;-76
2022/10/26 04:52:55;;;;;;;8.73;4.70;;;;;;;10.64;100.00;101203.28;4974349;28;20033;-77
2022/10/26 04:55:20;;;;;;;10.68;4.40;;;;;;;10.62;100.00;101199.84;4971796;28;20045;-76
2022/10/26 04:57:45;;;;;;;11.25;4.45;;;;;;;10.69;100.00;101216.22;4974496;28;20493;-76
2022/10/26 05:00:11;;;;;;;9.65;4.90;;;;;;;10.58;100.00;101190.34;4972275;28;20101;-76
2022/10/26 05:02:36;;;;;;;9.18;4.82;;;;;;;10.71;100.00;101211.84;4973319;28;20062;-76
2022/10/26 05:05:02;;;;;;;15.30;5.07;;;;;;;10.72;100.00;101216.19;4973068;28;20382;-76
2022/10/26 05:07:27;;;;;;;8.93;4.28;;;;;;;10.72;100.00;101210.97;4974002;28;20031;-76
2022/10/26 05:09:52;;;;;;;10.27;4.38;;;;;;;10.74;100.00;101211.81;4973348;28;20061;-76
2022/10/26 05:12:18;;;;;;;9.55;4.88;;;;;;;10.72;100.00;101216.19;4972061;28;20042;-76
2022/10/26 05:14:43;;;;;;;13.50;4.45;;;;;;;10.71;100.00;101211.84;4974497;28;20046;-76
2022/10/26 05:17:08;;;;;;;9.02;4.35;;;;;;;10.74;100.00;101217.88;4970945;28;20042;-76
2022/10/26 05:19:34;;;;;;;10.93;4.90;;;;;;;10.78;100.00;101224.75;4973583;28;20094;-76
2022/10/26 05:21:59;;;;;;;11.48;4.68;;;;;;;10.78;100.00;101222.13;4973906;28;20121;-76
2022/10/26 05:24:24;;;;;;;8.75;4.93;;;;;;;10.77;100.00;101215.22;4972629;28;20478;-76
2022/10/26 05:26:49;;;;;;;9.20;4.30;;;;;;;10.78;100.00;101222.13;4972667;28;20045;-76
2022/10/26 05:29:15;;;;;;;10.25;4.10;;;;;;;10.78;100.00;101221.28;4973487;28;20093;-76
2022/10/26 05:31:40;;;;;;;10.55;4.88;;;;;;;10.79;100.00;101233.47;4971946;28;20166;-76
2022/10/26 05:34:05;;;;;;;10.20;4.40;;;;;;;10.78;100.00;101226.50;4973034;28;20031;-76
2022/10/26 05:36:31;;;;;;;12.20;3.95;;;;;;;10.74;100.00;101222.22;4974266;28;20077;-77
2022/10/26 05:38:57;;;;;;;19.13;4.63;;;;;;;10.77;100.00;101228.25;4973637;28;20019;-76
2022/10/26 05:41:22;;;;;;;8.30;4.32;;;;;;;10.77;100.00;101222.19;4974064;28;20031;-76
2022/10/26 05:43:47;;;;;;;11.43;4.68;;;;;;;10.79;100.00;101220.41;4972462;28;20399;-76
2022/10/26 05:46:13;;;;;;;13.75;4.20;;;;;;;10.82;100.00;101222.94;4971555;28;20038;-76
2022/10/26 05:48:38;;;;;;;10.45;3.88;;;;;;;10.83;100.00;101222.06;4974062;28;20045;-76
2022/10/26 05:51:03;;;;;;;7.85;3.88;;;;;;;10.82;100.00;101228.16;4971588;28;20466;-77
2022/10/26 05:53:29;;;;;;;6.38;3.85;;;;;;;10.85;100.00;101228.09;4972391;28;20039;-76
2022/10/26 05:55:55;;;;;;;7.00;4.25;;;;;;;10.87;100.00;101239.38;4972042;28;20014;-76
2022/10/26 05:58:21;;;;;;;9.07;4.15;;;;;;;10.89;100.00;101242.84;4972608;28;20451;-76
2022/10/26 06:01:06;;;;;;;10.75;4.38;;;;;;;10.89;100.00;101239.34;4971197;28;20066;-76
2022/10/26 06:03:43;;;;;;;4.72;3.40;;;;;;;10.89;100.00;101236.72;4972958;28;20038;-76
2022/10/26 06:06:10;;;;;;;6.38;4.10;;;;;;;10.88;100.00;101241.09;4971013;28;20038;-76
2022/10/26 06:08:36;;;;;;;9.25;3.80;;;;;;;10.90;100.00;101249.75;4963806;28;20489;-76
2022/10/26 06:11:01;;;;;;;9.20;3.90;;;;;;;10.84;100.00;101249.88;4973900;28;20114;-76
2022/10/26 06:13:27;;;;;;;9.73;3.97;;;;;;;10.86;100.00;101253.31;4972723;28;20027;-76
2022/10/26 06:16:30;;;;;;;8.20;4.20;;;;;;;10.84;100.00;101256.84;4974028;28;20026;-76
2022/10/26 06:19:09;;;;;;;8.77;4.40;;;;;;;10.82;100.00;101259.44;4963356;28;20038;-77
2022/10/26 06:21:55;;;;;;;9.13;3.58;;;;;;;10.78;100.00;101252.59;4971267;28;20026;-76
2022/10/26 06:24:28;;;;;;;12.15;4.30;;;;;;;10.71;100.00;101253.59;4972460;28;20035;-77
2022/10/26 06:27:14;;;;;;;7.67;4.60;;;;;;;10.65;100.00;101244.09;4970870;28;20038;-76
2022/10/26 06:30:03;;;;;;;9.52;4.35;;;;;;;10.60;100.00;101252.91;4971660;28;20065;-76
2022/10/26 06:32:29;;;;;;;7.20;4.03;;;;;;;10.54;100.00;101249.50;4956106;28;20039;-76
2022/10/26 06:35:10;;;;;;;8.88;3.88;;;;;;;10.49;100.00;101245.25;4970480;28;20158;-77
2022/10/26 06:37:36;;;;;;;10.43;4.82;;;;;;;10.50;100.00;101245.25;4969573;28;20034;-77
2022/10/26 06:40:03;;;;;;;13.55;4.70;;;;;;;10.55;100.00;101248.63;4975246;28;20106;-77
2022/10/26 06:42:30;;;;;;;11.73;4.40;;;;;;;10.57;100.00;101232.13;4976375;28;20023;-78
2022/10/26 06:44:56;;;;;;;11.05;4.20;;;;;;;10.68;100.00;101248.41;4972228;28;20041;-77
2022/10/26 06:47:47;;;;;;;12.82;4.68;;;;;;;10.75;100.00;101237.84;4976287;28;20031;-78
2022/10/26 06:50:29;;;;;;;10.45;5.28;;;;;;;10.84;100.00;101239.44;4977253;28;20132;-78
2022/10/26 06:53:00;;;;;;;10.43;4.22;;;;;;;10.87;100.00;101242.00;4974836;28;20113;-78
2022/10/26 06:55:30;;;;;;;11.00;5.28;;;;;;;10.90;100.00;101228.88;4974957;28;20097;-78
2022/10/26 06:57:55;;;;;;;16.30;5.07;;;;;;;10.99;100.00;101239.16;4977251;28;20026;-78
2022/10/26 07:00:22;;;;;;;10.23;4.15;;;;;;;11.00;100.00;101240.88;4974570;28;20050;-79
2022/10/26 07:02:48;;;;;;;13.27;4.32;;;;;;;10.98;100.00;101237.41;4976549;28;20085;-78
2022/10/26 07:05:13;;;;;;;13.25;4.40;;;;;;;10.94;100.00;101240.97;4975781;28;20034;-78
2022/10/26 07:07:44;;;;;;;13.32;4.75;;;;;;;10.90;100.00;101241.94;4976866;28;20035;-78
2022/10/26 07:10:11;;;;;;;8.38;4.18;;;;;;;10.85;100.00;101248.97;4976340;28;20031;-78
2022/10/26 07:12:36;;;;;;;16.17;5.22;;;;;;;10.82;100.00;101259.44;4976974;28;20051;-78
2022/10/26 07:15:02;;;;;;;8.98;4.18;;;;;;;10.81;100.00;101269.94;4977199;28;20482;-78
2022/10/26 07:17:29;;;;;;;9.02;4.53;;;;;;;10.76;100.00;101263.06;4974145;28;20461;-78
2022/10/26 07:19:54;;;;;;;12.23;4.90;;;;;;;10.79;100.00;101269.97;4974226;28;20030;-77
2022/10/26 07:22:19;;;;;;;8.73;4.50;;;;;;;10.77;100.00;101271.72;4975020;28;20474;-77
2022/10/26 07:24:49;;;;;;;8.25;4.53;;;;;;;10.76;100.00;101270.88;4974858;28;20033;-77
2022/10/26 07:27:14;;;;;;;8.40;4.10;;;;;;;10.85;100.00;101288.09;4975267;28;20033;-77
2022/10/26 07:29:39;;;;;;;7.07;4.28;;;;;;;10.89;100.00;101284.56;4975381;28;20137;-77
2022/10/26 07:32:05;;;;;;;6.78;4.20;;;;;;;10.91;100.00;101279.31;4974591;28;20109;-77
2022/10/26 07:34:30;;;;;;;12.40;4.55;;;;;;;10.95;100.00;101281.84;4975455;28;20035;-77
2022/10/26 07:36:58;;;;;;;9.90;4.78;;;;;;;11.06;100.00;101286.00;4971738;28;20037;-77
2022/10/26 07:39:23;;;;;;;9.20;4.53;;;;;;;11.11;100.00;101281.56;4974315;28;20459;-78
2022/10/26 07:41:48;;;;;;;11.43;4.57;;;;;;;11.15;100.00;101281.47;4975826;28;20035;-78
2022/10/26 07:44:14;;;;;;;9.13;4.60;;;;;;;11.25;100.00;101296.06;4974245;28;20051;-78
2022/10/26 07:46:39;;;;;;;10.65;4.90;;;;;;;11.32;100.00;101301.19;4980309;28;20129;-78
2022/10/26 07:49:04;;;;;;;10.05;4.57;;;;;;;11.43;100.00;101318.34;4979022;28;20015;-78
2022/10/26 07:51:30;;;;;;;16.00;5.30;;;;;;;11.52;100.00;101325.16;4977000;28;20390;-78
2022/10/26 07:53:55;;;;;;;10.88;4.75;;;;;;;11.54;100.00;101312.91;4976341;28;20039;-78
2022/10/26 07:56:20;;;;;;;5.00;3.67;;;;;;;11.66;100.00;101311.81;4975993;28;20027;-78
2022/10/26 07:58:46;;;;;;;7.90;3.58;;;;;;;11.75;100.00;101314.22;4975301;28;20077;-78
2022/10/26 08:01:14;;;;;;;7.88;3.95;;;;;;;11.84;100.00;101308.84;4975746;28;20026;-78
2022/10/26 08:03:40;;;;;;;11.85;4.40;;;;;;;11.93;100.00;101324.34;4985343;28;20474;-78
2022/10/26 08:06:06;;;;;;;5.50;3.70;;;;;;;12.01;100.00;101323.31;4975476;28;20063;-78
2022/10/26 08:08:31;;;;;;;8.32;4.28;;;;;;;12.06;100.00;101329.28;4975867;28;20066;-78
2022/10/26 08:10:57;;;;;;;8.10;4.10;;;;;;;12.15;100.00;101336.94;4975687;28;20046;-77
2022/10/26 08:13:23;;;;;;;7.25;4.38;;;;;;;12.30;100.00;101326.13;4974788;28;20102;-78
2022/10/26 08:15:48;;;;;;;8.50;3.78;;;;;;;12.46;100.00;101321.41;4975985;28;20034;-78
2022/10/26 08:18:14;;;;;;;6.47;4.13;;;;;;;12.66;100.00;101326.16;4975229;28;20079;-78
2022/10/26 08:20:39;;;;;;;7.50;3.55;;;;;;;12.77;100.00;101318.03;4974855;28;20027;-79
2022/10/26 08:23:05;;;;;;;6.90;3.60;;;;;;;12.91;100.00;101317.69;4971686;28;20526;-78
2022/10/26 08:25:32;;;;;;;6.40;3.22;;;;;;;13.03;100.00;101336.56;4973503;28;20033;-78
2022/10/26 08:28:01;;;;;;;8.57;3.88;;;;;;;13.14;100.00;101336.25;4973435;28;20037;-78
2022/10/26 08:30:28;;;;;;;12.43;3.83;;;;;;;13.15;100.00;101337.16;4975355;28;20109;-78
2022/10/26 08:33:06;;;;;;;8.60;3.50;;;;;;;13.13;100.00;101334.56;4974708;28;20022;-78
2022/10/26 08:35:33;;;;;;;7.50;3.60;;;;;;;13.17;100.00;101336.19;4975227;28;20125;-78
2022/10/26 08:37:58;;;;;;;6.28;3.20;;;;;;;13.17;100.00;101335.34;4975569;28;20031;-78
2022/10/26 08:40:31;;;;;;;5.15;3.15;;;;;;;13.25;100.00;101334.28;4974318;28;20397;-78
2022/10/26 08:42:59;;;;;;;;;;;;;;;13.25;100.00;101338.66;4975749;28;20414;-78
2022/10/26 08:45:37;;;;;;;8.35;3.28;;;;;;;13.29;100.00;101346.38;4975022;28;19918;-78
2022/10/26 08:48:10;;;;;;;9.43;3.20;;;;;;;13.44;100.00;101349.47;4974784;28;20042;-79
2022/10/26 08:50:48;;;;;;;8.85;3.33;;;;;;;13.52;100.00;101337.88;4975303;28;20519;-78
2022/10/26 08:53:31;;;;;;;8.10;3.15;;;;;;;13.64;100.00;101333.22;4975105;28;20034;-78
2022/10/26 08:56:04;;;;;;;4.85;2.90;;;;;;;13.76;100.00;101328.47;4974302;28;20035;-78
2022/10/26 08:58:39;;;;;;;6.55;3.10;;;;;;;13.86;100.00;101318.56;4974618;28;20458;-78
2022/10/26 09:01:04;;;;;;;7.88;2.90;;;;;;;13.90;100.00;101306.28;4974538;28;20062;-78
2022/10/26 09:03:30;;;;;;;6.85;3.33;;;;;;;14.08;100.00;101318.81;4974818;28;20418;-78
2022/10/26 09:05:58;;;;;;;11.02;2.95;;;;;;;14.16;100.00;101335.19;4974982;28;20019;-78
2022/10/26 09:08:44;;;;;;;7.00;2.88;;;;;;;14.23;100.00;101328.84;4973830;28;20022;-78
2022/10/26 09:11:39;;;;;;;7.25;2.80;;;;;;;14.38;100.00;101339.75;4974699;28;20489;-78
2022/10/26 09:14:18;;;;;;;4.63;2.58;;;;;;;14.45;100.00;101354.38;4974904;28;20034;-78
2022/10/26 09:17:08;;;;;;;6.43;2.97;;;;;;;14.49;100.00;101354.25;4974026;28;20046;-78
2022/10/26 09:20:05;;;;;;;16.65;3.80;;;;;;;14.58;100.00;101357.50;4974462;28;20138;-78
2022/10/26 09:22:57;;;;;;;13.63;2.78;;;;;;;14.67;100.00;101368.56;4973719;28;20027;-78
2022/10/26 09:25:28;;;;;;;11.15;3.40;;;;;;;14.80;100.00;101370.81;4973178;28;20033;-78
2022/10/26 09:28:00;;;;;;;8.80;3.03;;;;;;;14.85;100.00;101380.25;4974346;28;20482;-76
2022/10/26 09:30:25;;;;;;;5.72;3.17;;;;;;;14.91;100.00;101387.94;4973259;28;20424;-77
2022/10/26 09:33:01;;;;;;;4.90;2.80;;;;;;;15.04;100.00;101390.13;4974514;28;20058;-77
2022/10/26 09:35:57;;;;;;;6.40;2.95;;;;;;;15.17;100.00;101394.94;4971860;28;20089;-77
2022/10/26 09:38:32;;;;;;;8.70;2.88;;;;;;;15.31;100.00;101412.00;4934086;28;20053;-77
2022/10/26 09:41:03;;;;;;;7.97;2.80;;;;;;;15.40;100.00;101406.41;4973038;28;20035;-75
2022/10/26 09:43:43;;;;;;;8.20;2.88;;;;;;;15.44;100.00;101405.41;4969797;28;20506;-75
2022/10/26 09:46:14;;;;;;;8.82;3.78;;;;;;;15.43;100.00;101401.03;4971099;28;20471;-75
2022/10/26 09:48:46;;;;;;;7.65;2.88;;;;;;;15.39;100.00;101409.94;4974379;28;20027;-75
2022/10/26 09:51:15;;;;;;;6.68;3.42;;;;;;;15.27;100.00;101403.38;4969523;28;20509;-75
2022/10/26 09:53:40;;;;;;;9.07;3.30;;;;;;;15.20;100.00;101407.09;4967450;28;20027;-74
2022/10/26 09:56:10;;;;;;;8.85;3.28;;;;;;;15.17;100.00;101407.19;4973761;28;20493;-77
2022/10/26 09:58:41;;;;;;;8.07;2.88;;;;;;;15.11;100.00;101410.91;4972066;28;20023;-77
2022/10/26 10:01:20;;;;;;;8.60;3.55;;;;;;;15.16;100.00;101434.38;4973668;28;20077;-77
2022/10/26 10:03:45;;;;;;;10.10;2.95;;;;;;;15.18;100.00;101425.53;4973772;28;20394;-77
2022/10/26 10:06:18;;;;;;;5.70;3.38;;;;;;;15.16;100.00;101435.22;4972707;28;20019;-77
2022/10/26 10:09:05;;;;;;;7.32;3.60;;;;;;;15.19;100.00;101418.50;4972985;28;20490;-78
2022/10/26 10:11:56;;;;;;;5.97;3.47;;;;;;;15.26;100.00;101440.19;4971846;28;20402;-78
2022/10/26 10:14:27;;;;;;;9.10;3.33;;;;;;;15.41;100.00;101440.53;4966941;28;20097;-78
2022/10/26 10:16:57;;;;;;;7.20;3.15;;;;;;;15.48;100.00;101443.81;4973957;28;20027;-78
2022/10/26 10:19:25;;;;;;;8.25;3.15;;;;;;;15.58;100.00;101444.34;4972604;28;20113;-78
2022/10/26 10:21:54;;;;;;;9.48;3.20;;;;;;;15.64;100.00;101450.25;4973907;28;20089;-78
2022/10/26 10:24:24;;;;;;;11.65;3.40;;;;;;;15.72;100.00;101465.75;4973533;28;20089;-78
2022/10/26 10:27:02;;;;;;;8.02;3.30;;;;;;;15.80;100.00;101473.41;4972988;28;20027;-78
2022/10/26 10:29:32;;;;;;;7.05;3.40;;;;;;;15.88;100.00;101477.47;4971695;28;20038;-78
2022/10/26 10:32:00;;;;;;;12.30;3.88;;;;;;;15.90;100.00;101478.28;4973452;28;20019;-78
2022/10/26 10:34:28;;;;;;;9.27;2.95;;;;;;;15.97;100.00;101471.03;4967801;28;20038;-77
2022/10/26 10:36:54;;;;;;;12.00;3.22;;;;;;;15.98;100.00;101469.25;4971533;28;20035;-78
2022/10/26 10:39:39;;;;;;;7.88;3.30;;;;;;;16.06;100.00;101491.75;4967202;28;20375;-78
2022/10/26 10:42:14;;;;;;;9.20;3.40;;;;;;;16.09;100.00;101491.63;4971832;28;20034;-78
2022/10/26 10:44:42;;;;;;;6.53;3.03;;;;;;;16.10;100.00;101492.47;4971262;28;20093;-78
2022/10/26 10:47:18;;;;;;;7.72;3.03;;;;;;;16.19;100.00;101492.16;4968026;28;20443;-78
2022/10/26 10:49:51;;;;;;;8.32;3.10;;;;;;;16.26;100.00;101498.06;4972629;28;20029;-78
2022/10/26 10:52:31;;;;;;;7.80;3.42;;;;;;;16.44;100.00;101502.59;4969547;28;20034;-78
2022/10/26 10:55:09;;;;;;;7.00;3.15;;;;;;;16.55;100.00;101500.44;4973705;28;20133;-78
2022/10/26 10:57:43;;;;;;;12.23;3.40;;;;;;;16.70;100.00;101503.41;4973381;28;20034;-78
2022/10/26 11:00:11;;;;;;;9.02;3.15;;;;;;;16.82;100.00;101519.63;4972596;28;20455;-78
2022/10/26 11:02:58;;;;;;;9.88;3.17;;;;;;;16.92;100.00;101516.63;4967867;28;20027;-78
2022/10/26 11:05:37;;;;;;;5.47;2.78;;;;;;;16.95;100.00;101517.38;4973373;28;20027;-77
2022/10/26 11:08:08;;;;;;;4.57;2.60;;;;;;;16.95;100.00;101513.88;4972698;28;20106;-75
2022/10/26 11:10:39;;;;;;;10.18;2.58;;;;;;;16.91;100.00;101514.94;4973335;28;20213;-75
2022/10/26 11:13:39;;;;;;;7.32;2.90;;;;;;;16.79;100.00;101508.34;4970738;28;20472;-76
2022/10/26 11:16:13;;;;;;;7.50;2.75;;;;;;;17.01;100.00;101530.31;4969488;28;20065;-75
2022/10/26 11:18:50;;;;;;;5.38;2.42;;;;;;;17.19;100.00;101541.03;4970428;28;20023;-75
2022/10/26 11:21:25;;;;;;;9.20;2.42;;;;;;;17.38;100.00;101530.59;4974458;28;20045;-75
2022/10/26 11:24:09;;;;;;;6.20;3.17;;;;;;;17.53;100.00;101537.88;4974055;28;20046;-75
2022/10/26 11:26:54;;;;;;;3.78;2.30;;;;;;;17.70;100.00;101543.31;4975569;28;20116;-75
2022/10/26 11:29:29;;;;;;;8.77;2.55;;;;;;;17.95;100.00;101523.81;4963145;28;20098;-75